sensor_id;sensor_type;location;lat;lon;timestamp;pressure;altitude;pressure_sealevel;temperature;humidity
79589;BME280;69067;51.930;4.492;2023-05-31T00:00:33;102644.19;;;23.22;40.72
79589;BME280;69067;51.930;4.492;2023-05-31T00:03:00;102649.31;;;23.33;40.51
79589;BME280;69067;51.930;4.492;2023-05-31T00:05:25;102642.69;;;23.27;40.24
79589;BME280;69067;51.930;4.492;2023-05-31T00:07:51;102643.69;;;23.26;40.61
79589;BME280;69067;51.930;4.492;2023-05-31T00:10:17;102632.50;;;23.29;40.60
79589;BME280;69067;51.930;4.492;2023-05-31T00:12:42;102642.69;;;23.27;39.97
79589;BME280;69067;51.930;4.492;2023-05-31T00:15:08;102643.19;;;23.31;41.05
79589;BME280;69067;51.930;4.492;2023-05-31T00:17:34;102644.75;;;23.33;39.90
79589;BME280;69067;51.930;4.492;2023-05-31T00:20:00;102639.00;;;23.36;40.70
79589;BME280;69067;51.930;4.492;2023-05-31T00:22:26;102643.22;;;23.39;40.71
79589;BME280;69067;51.930;4.492;2023-05-31T00:24:51;102629.66;;;23.47;40.37
79589;BME280;69067;51.930;4.492;2023-05-31T00:27:18;102641.13;;;23.50;40.42
79589;BME280;69067;51.930;4.492;2023-05-31T00:29:43;102645.34;;;23.53;39.57
79589;BME280;69067;51.930;4.492;2023-05-31T00:32:09;102644.34;;;23.54;39.65
79589;BME280;69067;51.930;4.492;2023-05-31T00:34:35;102639.91;;;23.53;40.01
79589;BME280;69067;51.930;4.492;2023-05-31T00:37:00;102641.63;;;23.54;39.53
79589;BME280;69067;51.930;4.492;2023-05-31T00:39:26;102633.63;;;23.52;40.45
79589;BME280;69067;51.930;4.492;2023-05-31T00:41:52;102631.09;;;23.51;40.60
79589;BME280;69067;51.930;4.492;2023-05-31T00:44:18;102627.88;;;23.55;40.48
79589;BME280;69067;51.930;4.492;2023-05-31T00:46:44;102632.56;;;23.45;40.64
79589;BME280;69067;51.930;4.492;2023-05-31T00:49:10;102635.84;;;23.49;40.10
79589;BME280;69067;51.930;4.492;2023-05-31T00:51:36;102625.59;;;23.43;40.52
79589;BME280;69067;51.930;4.492;2023-05-31T00:54:03;102635.00;;;23.48;40.46
79589;BME280;69067;51.930;4.492;2023-05-31T00:56:29;102640.94;;;23.52;39.94
79589;BME280;69067;51.930;4.492;2023-05-31T00:58:56;102632.78;;;23.52;40.17
79589;BME280;69067;51.930;4.492;2023-05-31T01:01:23;102633.47;;;23.54;40.40
79589;BME280;69067;51.930;4.492;2023-05-31T01:03:56;102639.59;;;23.56;40.14
79589;BME280;69067;51.930;4.492;2023-05-31T01:06:22;102641.97;;;23.51;40.71
79589;BME280;69067;51.930;4.492;2023-05-31T01:08:55;102639.41;;;23.49;39.82
79589;BME280;69067;51.930;4.492;2023-05-31T01:17:52;102634.59;;;23.43;40.98
79589;BME280;69067;51.930;4.492;2023-05-31T01:20:31;102644.94;;;23.40;40.11
79589;BME280;69067;51.930;4.492;2023-05-31T01:26:15;102633.06;;;23.41;40.60
79589;BME280;69067;51.930;4.492;2023-05-31T01:29:07;102632.03;;;23.42;40.68
79589;BME280;69067;51.930;4.492;2023-05-31T01:31:35;102634.88;;;23.32;40.73
79589;BME280;69067;51.930;4.492;2023-05-31T01:34:03;102632.31;;;23.31;40.96
79589;BME280;69067;51.930;4.492;2023-05-31T01:36:30;102637.75;;;23.31;41.08
79589;BME280;69067;51.930;4.492;2023-05-31T01:38:56;102635.56;;;23.34;41.06
79589;BME280;69067;51.930;4.492;2023-05-31T01:41:26;102644.09;;;23.39;40.90
79589;BME280;69067;51.930;4.492;2023-05-31T01:43:54;102633.38;;;23.38;41.02
79589;BME280;69067;51.930;4.492;2023-05-31T01:46:20;102626.22;;;23.29;41.19
79589;BME280;69067;51.930;4.492;2023-05-31T01:48:47;102630.03;;;23.44;40.65
79589;BME280;69067;51.930;4.492;2023-05-31T01:51:14;102636.09;;;23.38;40.81
79589;BME280;69067;51.930;4.492;2023-05-31T01:53:41;102627.91;;;23.30;41.34
79589;BME280;69067;51.930;4.492;2023-05-31T01:56:08;102636.94;;;23.30;41.22
79589;BME280;69067;51.930;4.492;2023-05-31T01:58:40;102638.78;;;23.30;40.56
79589;BME280;69067;51.930;4.492;2023-05-31T02:01:11;102629.78;;;23.37;41.17
79589;BME280;69067;51.930;4.492;2023-05-31T02:03:38;102638.44;;;23.33;40.87
79589;BME280;69067;51.930;4.492;2023-05-31T02:06:05;102638.44;;;23.33;40.47
79589;BME280;69067;51.930;4.492;2023-05-31T02:08:31;102639.50;;;23.40;40.90
79589;BME280;69067;51.930;4.492;2023-05-31T02:10:56;102634.41;;;23.45;40.81
79589;BME280;69067;51.930;4.492;2023-05-31T02:13:27;102633.41;;;23.46;41.13
79589;BME280;69067;51.930;4.492;2023-05-31T02:15:54;102627.97;;;23.46;40.82
79589;BME280;69067;51.930;4.492;2023-05-31T02:18:21;102630.84;;;23.44;40.54
79589;BME280;69067;51.930;4.492;2023-05-31T02:20:47;102628.59;;;23.32;41.14
79589;BME280;69067;51.930;4.492;2023-05-31T02:23:13;102627.47;;;23.42;40.86
79589;BME280;69067;51.930;4.492;2023-05-31T02:25:39;102631.50;;;23.38;40.62
79589;BME280;69067;51.930;4.492;2023-05-31T02:28:05;102630.41;;;23.49;40.20
79589;BME280;69067;51.930;4.492;2023-05-31T02:30:31;102629.97;;;23.36;41.10
79589;BME280;69067;51.930;4.492;2023-05-31T02:32:58;102617.59;;;23.41;40.73
79589;BME280;69067;51.930;4.492;2023-05-31T02:35:25;102616.03;;;23.39;40.70
79589;BME280;69067;51.930;4.492;2023-05-31T02:37:51;102626.25;;;23.37;41.42
79589;BME280;69067;51.930;4.492;2023-05-31T02:40:17;102628.63;;;23.40;40.61
79589;BME280;69067;51.930;4.492;2023-05-31T02:42:43;102623.19;;;23.40;41.16
79589;BME280;69067;51.930;4.492;2023-05-31T02:45:10;102624.03;;;23.40;41.48
79589;BME280;69067;51.930;4.492;2023-05-31T02:47:38;102623.16;;;23.32;40.85
79589;BME280;69067;51.930;4.492;2023-05-31T02:50:05;102634.72;;;23.34;40.48
79589;BME280;69067;51.930;4.492;2023-05-31T02:52:34;102620.44;;;23.32;41.53
79589;BME280;69067;51.930;4.492;2023-05-31T02:55:00;102618.41;;;23.34;40.60
79589;BME280;69067;51.930;4.492;2023-05-31T02:57:26;102615.69;;;23.34;40.91
79589;BME280;69067;51.930;4.492;2023-05-31T02:59:57;102614.50;;;23.28;41.61
79589;BME280;69067;51.930;4.492;2023-05-31T03:02:24;102615.34;;;23.29;41.21
79589;BME280;69067;51.930;4.492;2023-05-31T03:04:50;102612.47;;;23.30;40.68
79589;BME280;69067;51.930;4.492;2023-05-31T03:07:16;102617.53;;;23.25;41.14
79589;BME280;69067;51.930;4.492;2023-05-31T03:09:42;102613.28;;;23.31;41.13
79589;BME280;69067;51.930;4.492;2023-05-31T03:12:08;102613.28;;;23.23;41.53
79589;BME280;69067;51.930;4.492;2023-05-31T03:14:35;102605.13;;;23.23;41.48
79589;BME280;69067;51.930;4.492;2023-05-31T03:17:01;102608.19;;;23.28;41.17
79589;BME280;69067;51.930;4.492;2023-05-31T03:19:28;102600.75;;;23.30;41.29
79589;BME280;69067;51.930;4.492;2023-05-31T03:21:54;102605.78;;;23.25;40.99
79589;BME280;69067;51.930;4.492;2023-05-31T03:24:20;102608.31;;;23.18;41.56
79589;BME280;69067;51.930;4.492;2023-05-31T03:26:46;102605.13;;;23.23;41.72
79589;BME280;69067;51.930;4.492;2023-05-31T03:29:11;102594.91;;;23.25;41.07
79589;BME280;69067;51.930;4.492;2023-05-31T03:31:38;102596.94;;;23.14;41.83
79589;BME280;69067;51.930;4.492;2023-05-31T03:34:04;102605.28;;;23.21;41.39
79589;BME280;69067;51.930;4.492;2023-05-31T03:36:30;102604.44;;;23.21;41.89
79589;BME280;69067;51.930;4.492;2023-05-31T03:38:56;102598.66;;;23.24;41.72
79589;BME280;69067;51.930;4.492;2023-05-31T03:41:22;102596.28;;;23.21;41.44
79589;BME280;69067;51.930;4.492;2023-05-31T03:43:47;102593.56;;;23.21;41.51
79589;BME280;69067;51.930;4.492;2023-05-31T03:46:16;102594.25;;;23.23;40.95
79589;BME280;69067;51.930;4.492;2023-05-31T03:48:41;102592.03;;;23.26;40.88
79589;BME280;69067;51.930;4.492;2023-05-31T03:51:07;102596.44;;;23.19;40.89
79589;BME280;69067;51.930;4.492;2023-05-31T03:53:33;102592.84;;;23.18;41.17
79589;BME280;69067;51.930;4.492;2023-05-31T03:55:58;102596.28;;;23.21;41.64
79589;BME280;69067;51.930;4.492;2023-05-31T03:58:24;102594.91;;;23.25;41.86
79589;BME280;69067;51.930;4.492;2023-05-31T04:00:50;102598.63;;;23.15;41.06
79589;BME280;69067;51.930;4.492;2023-05-31T04:03:16;102606.59;;;23.17;41.25
79589;BME280;69067;51.930;4.492;2023-05-31T04:05:43;102609.72;;;23.22;40.79
79589;BME280;69067;51.930;4.492;2023-05-31T04:08:09;102615.44;;;23.19;41.56
79589;BME280;69067;51.930;4.492;2023-05-31T04:10:34;102618.03;;;23.21;40.91
79589;BME280;69067;51.930;4.492;2023-05-31T04:13:00;102615.31;;;23.21;41.42
79589;BME280;69067;51.930;4.492;2023-05-31T04:15:27;102618.31;;;23.17;41.56
79589;BME280;69067;51.930;4.492;2023-05-31T04:17:53;102618.03;;;23.21;41.90
79589;BME280;69067;51.930;4.492;2023-05-31T04:20:18;102620.06;;;23.27;41.47
79589;BME280;69067;51.930;4.492;2023-05-31T04:22:44;102619.56;;;23.23;41.25
79589;BME280;69067;51.930;4.492;2023-05-31T04:25:10;102629.41;;;23.24;40.97
79589;BME280;69067;51.930;4.492;2023-05-31T04:27:39;102627.19;;;23.20;40.97
79589;BME280;69067;51.930;4.492;2023-05-31T04:30:06;102623.59;;;23.19;41.88
79589;BME280;69067;51.930;4.492;2023-05-31T04:32:36;102623.28;;;23.22;41.57
79589;BME280;69067;51.930;4.492;2023-05-31T04:35:02;102620.94;;;23.27;41.73
79589;BME280;69067;51.930;4.492;2023-05-31T04:37:29;102622.28;;;23.23;41.37
79589;BME280;69067;51.930;4.492;2023-05-31T04:39:56;102633.97;;;23.24;41.51
79589;BME280;69067;51.930;4.492;2023-05-31T04:42:23;102628.88;;;23.21;41.14
79589;BME280;69067;51.930;4.492;2023-05-31T04:44:54;102628.19;;;23.18;41.18
79589;BME280;69067;51.930;4.492;2023-05-31T04:47:32;102628.22;;;23.27;40.83
79589;BME280;69067;51.930;4.492;2023-05-31T04:49:59;102630.25;;;23.25;41.28
79589;BME280;69067;51.930;4.492;2023-05-31T04:52:27;102624.78;;;23.16;41.54
79589;BME280;69067;51.930;4.492;2023-05-31T04:54:59;102631.97;;;23.26;41.41
79589;BME280;69067;51.930;4.492;2023-05-31T04:57:26;102624.47;;;23.20;41.49
79589;BME280;69067;51.930;4.492;2023-05-31T04:59:55;102618.66;;;23.14;41.56
79589;BME280;69067;51.930;4.492;2023-05-31T05:02:24;102626.53;;;23.26;41.66
79589;BME280;69067;51.930;4.492;2023-05-31T05:04:51;102619.06;;;23.28;41.31
79589;BME280;69067;51.930;4.492;2023-05-31T05:07:17;102620.03;;;23.18;41.43
79589;BME280;69067;51.930;4.492;2023-05-31T05:09:43;102622.75;;;23.18;41.02
79589;BME280;69067;51.930;4.492;2023-05-31T05:12:09;102622.59;;;23.20;41.87
79589;BME280;69067;51.930;4.492;2023-05-31T05:14:36;102621.75;;;23.20;41.44
79589;BME280;69067;51.930;4.492;2023-05-31T05:17:02;102632.63;;;23.20;42.01
79589;BME280;69067;51.930;4.492;2023-05-31T05:19:27;102617.66;;;23.15;41.86
79589;BME280;69067;51.930;4.492;2023-05-31T05:21:54;102627.50;;;23.16;41.25
79589;BME280;69067;51.930;4.492;2023-05-31T05:24:20;102618.31;;;23.09;41.64
79589;BME280;69067;51.930;4.492;2023-05-31T05:26:45;102632.41;;;23.13;42.11
79589;BME280;69067;51.930;4.492;2023-05-31T05:29:11;102633.63;;;23.18;41.34
79589;BME280;69067;51.930;4.492;2023-05-31T05:31:37;102639.41;;;23.15;41.99
79589;BME280;69067;51.930;4.492;2023-05-31T05:34:03;102632.41;;;23.13;42.35
79589;BME280;69067;51.930;4.492;2023-05-31T05:36:28;102629.69;;;23.13;41.95
79589;BME280;69067;51.930;4.492;2023-05-31T05:38:55;102628.69;;;23.14;41.73
79589;BME280;69067;51.930;4.492;2023-05-31T05:41:23;102631.25;;;23.15;41.79
79589;BME280;69067;51.930;4.492;2023-05-31T05:43:51;102626.97;;;23.13;41.75
79589;BME280;69067;51.930;4.492;2023-05-31T05:46:16;102637.34;;;23.17;42.41
79589;BME280;69067;51.930;4.492;2023-05-31T05:48:42;102634.28;;;23.12;41.51
79589;BME280;69067;51.930;4.492;2023-05-31T05:51:09;102642.97;;;23.16;42.13
79589;BME280;69067;51.930;4.492;2023-05-31T05:53:35;102641.94;;;23.17;41.23
79589;BME280;69067;51.930;4.492;2023-05-31T05:56:01;102634.13;;;23.14;42.15
79589;BME280;69067;51.930;4.492;2023-05-31T05:58:26;102642.13;;;23.15;41.74
79589;BME280;69067;51.930;4.492;2023-05-31T06:00:52;102641.72;;;23.10;42.36
79589;BME280;69067;51.930;4.492;2023-05-31T06:03:18;102633.28;;;23.13;42.07
79589;BME280;69067;51.930;4.492;2023-05-31T06:05:44;102639.56;;;23.14;41.66
79589;BME280;69067;51.930;4.492;2023-05-31T06:08:10;102633.28;;;23.13;41.69
79589;BME280;69067;51.930;4.492;2023-05-31T06:10:37;102633.28;;;23.13;42.41
79589;BME280;69067;51.930;4.492;2023-05-31T06:13:04;102633.28;;;23.13;41.73
79589;BME280;69067;51.930;4.492;2023-05-31T06:15:30;102637.00;;;23.12;42.50
79589;BME280;69067;51.930;4.492;2023-05-31T06:17:55;102640.72;;;23.11;42.32
79589;BME280;69067;51.930;4.492;2023-05-31T06:20:21;102645.84;;;23.14;42.26
79589;BME280;69067;51.930;4.492;2023-05-31T06:22:48;102639.56;;;23.14;42.29
79589;BME280;69067;51.930;4.492;2023-05-31T06:25:16;102640.22;;;23.08;42.07
79589;BME280;69067;51.930;4.492;2023-05-31T06:27:43;102642.13;;;23.15;42.50
79589;BME280;69067;51.930;4.492;2023-05-31T06:30:12;102647.72;;;23.14;41.47
79589;BME280;69067;51.930;4.492;2023-05-31T06:32:39;102645.84;;;23.14;42.20
79589;BME280;69067;51.930;4.492;2023-05-31T06:35:05;102650.94;;;23.17;41.60
79589;BME280;69067;51.930;4.492;2023-05-31T06:37:31;102656.72;;;23.14;42.48
79589;BME280;69067;51.930;4.492;2023-05-31T06:39:57;102654.66;;;23.16;42.24
79589;BME280;69067;51.930;4.492;2023-05-31T06:42:24;102654.47;;;23.10;41.69
79589;BME280;69067;51.930;4.492;2023-05-31T06:44:49;102652.13;;;23.15;42.05
79589;BME280;69067;51.930;4.492;2023-05-31T06:47:16;102645.84;;;23.14;41.60
79589;BME280;69067;51.930;4.492;2023-05-31T06:49:42;102647.06;;;23.20;41.51
79589;BME280;69067;51.930;4.492;2023-05-31T06:52:08;102643.63;;;23.18;41.47
79589;BME280;69067;51.930;4.492;2023-05-31T06:54:37;102637.69;;;23.14;42.19
79589;BME280;69067;51.930;4.492;2023-05-31T06:57:04;102633.47;;;23.20;41.39
79589;BME280;69067;51.930;4.492;2023-05-31T06:59:31;102642.13;;;23.15;41.31
79589;BME280;69067;51.930;4.492;2023-05-31T07:01:57;102639.22;;;23.17;41.94
79589;BME280;69067;51.930;4.492;2023-05-31T07:04:22;102637.19;;;23.19;41.98
79589;BME280;69067;51.930;4.492;2023-05-31T07:06:49;102628.13;;;23.10;41.21
79589;BME280;69067;51.930;4.492;2023-05-31T07:09:15;102635.13;;;23.13;42.48
79589;BME280;69067;51.930;4.492;2023-05-31T07:11:42;102637.84;;;23.13;42.14
79589;BME280;69067;51.930;4.492;2023-05-31T07:14:08;102639.41;;;23.15;42.25
79589;BME280;69067;51.930;4.492;2023-05-31T07:16:35;102628.69;;;23.14;41.96
79589;BME280;69067;51.930;4.492;2023-05-31T07:19:02;102630.72;;;23.12;41.98
79589;BME280;69067;51.930;4.492;2023-05-31T07:21:28;102632.09;;;23.16;41.58
79589;BME280;69067;51.930;4.492;2023-05-31T07:23:55;102633.56;;;23.10;41.91
79589;BME280;69067;51.930;4.492;2023-05-31T07:26:21;102633.97;;;23.15;42.59
79589;BME280;69067;51.930;4.492;2023-05-31T07:28:48;102629.84;;;23.11;42.72
79589;BME280;69067;51.930;4.492;2023-05-31T07:31:14;102629.19;;;23.17;41.82
79589;BME280;69067;51.930;4.492;2023-05-31T07:33:43;102627.50;;;23.16;41.63
79589;BME280;69067;51.930;4.492;2023-05-31T07:36:08;102629.53;;;23.14;41.60
79589;BME280;69067;51.930;4.492;2023-05-31T07:38:34;102632.13;;;23.24;41.66
79589;BME280;69067;51.930;4.492;2023-05-31T07:41:00;102624.09;;;23.14;41.90
79589;BME280;69067;51.930;4.492;2023-05-31T07:43:26;102620.69;;;23.12;41.69
79589;BME280;69067;51.930;4.492;2023-05-31T07:45:55;102630.22;;;23.16;41.54
79589;BME280;69067;51.930;4.492;2023-05-31T07:48:23;102622.91;;;23.17;42.22
79589;BME280;69067;51.930;4.492;2023-05-31T07:50:49;102617.47;;;23.17;41.57
79589;BME280;69067;51.930;4.492;2023-05-31T07:53:16;102616.63;;;23.16;42.20
79589;BME280;69067;51.930;4.492;2023-05-31T07:55:42;102612.91;;;23.17;41.95
79589;BME280;69067;51.930;4.492;2023-05-31T07:58:09;102611.94;;;23.27;42.24
79589;BME280;69067;51.930;4.492;2023-05-31T08:00:40;102606.44;;;23.18;42.02
79589;BME280;69067;51.930;4.492;2023-05-31T08:03:06;102609.31;;;23.17;42.22
79589;BME280;69067;51.930;4.492;2023-05-31T08:05:32;102611.06;;;23.26;41.27
79589;BME280;69067;51.930;4.492;2023-05-31T08:07:58;102612.63;;;23.29;41.07
79589;BME280;69067;51.930;4.492;2023-05-31T08:10:24;102611.94;;;23.27;42.34
79589;BME280;69067;51.930;4.492;2023-05-31T08:12:50;102607.50;;;23.26;42.31
79589;BME280;69067;51.930;4.492;2023-05-31T08:15:17;102607.34;;;23.27;41.56
79589;BME280;69067;51.930;4.492;2023-05-31T08:17:43;102605.13;;;23.31;42.06
79589;BME280;69067;51.930;4.492;2023-05-31T08:20:10;102610.25;;;23.34;42.28
79589;BME280;69067;51.930;4.492;2023-05-31T08:22:41;102607.03;;;23.30;42.44
79589;BME280;69067;51.930;4.492;2023-05-31T08:25:08;102596.97;;;23.23;42.50
79589;BME280;69067;51.930;4.492;2023-05-31T08:27:34;102606.50;;;23.27;43.04
79589;BME280;69067;51.930;4.492;2023-05-31T08:30:00;102593.91;;;23.26;42.51
79589;BME280;69067;51.930;4.492;2023-05-31T08:32:25;102598.66;;;23.24;42.42
79589;BME280;69067;51.930;4.492;2023-05-31T08:34:51;102604.78;;;23.26;42.63
79589;BME280;69067;51.930;4.492;2023-05-31T08:37:17;102597.63;;;23.25;42.91
79589;BME280;69067;51.930;4.492;2023-05-31T08:39:45;102598.34;;;23.27;42.81
79589;BME280;69067;51.930;4.492;2023-05-31T08:42:16;102599.19;;;23.27;43.12
79589;BME280;69067;51.930;4.492;2023-05-31T08:44:46;102603.78;;;23.27;42.67
79589;BME280;69067;51.930;4.492;2023-05-31T08:47:23;102601.38;;;23.24;42.56
79589;BME280;69067;51.930;4.492;2023-05-31T08:49:54;102592.19;;;23.25;42.40
79589;BME280;69067;51.930;4.492;2023-05-31T08:52:21;102595.47;;;23.28;42.15
79589;BME280;69067;51.930;4.492;2023-05-31T08:54:48;102590.88;;;23.29;42.95
79589;BME280;69067;51.930;4.492;2023-05-31T08:57:16;102582.69;;;23.21;43.22
79589;BME280;69067;51.930;4.492;2023-05-31T08:59:44;102588.47;;;23.26;42.77
79589;BME280;69067;51.930;4.492;2023-05-31T09:02:12;102586.59;;;23.26;42.43
79589;BME280;69067;51.930;4.492;2023-05-31T09:04:39;102591.03;;;23.27;42.89
79589;BME280;69067;51.930;4.492;2023-05-31T09:07:05;102586.75;;;23.25;42.78
79589;BME280;69067;51.930;4.492;2023-05-31T09:09:31;102583.56;;;23.29;42.42
79589;BME280;69067;51.930;4.492;2023-05-31T09:11:57;102581.00;;;23.28;42.43
79589;BME280;69067;51.930;4.492;2023-05-31T09:14:23;102584.78;;;23.35;42.08
79589;BME280;69067;51.930;4.492;2023-05-31T09:16:50;102578.50;;;23.34;42.42
79589;BME280;69067;51.930;4.492;2023-05-31T09:19:15;102580.34;;;23.34;42.25
79589;BME280;69067;51.930;4.492;2023-05-31T09:21:44;102577.63;;;23.34;42.10
79589;BME280;69067;51.930;4.492;2023-05-31T09:24:12;102575.94;;;23.33;42.55
79589;BME280;69067;51.930;4.492;2023-05-31T09:26:46;102565.06;;;23.33;42.25
79589;BME280;69067;51.930;4.492;2023-05-31T09:29:13;102575.63;;;23.36;42.87
79589;BME280;69067;51.930;4.492;2023-05-31T09:31:39;102578.84;;;23.39;42.48
79589;BME280;69067;51.930;4.492;2023-05-31T09:34:26;102567.94;;;23.31;41.87
79589;BME280;69067;51.930;4.492;2023-05-31T09:36:58;102569.81;;;23.39;42.51
79589;BME280;69067;51.930;4.492;2023-05-31T09:39:24;102562.38;;;23.41;42.23
79589;BME280;69067;51.930;4.492;2023-05-31T09:41:51;102568.81;;;23.40;42.80
79589;BME280;69067;51.930;4.492;2023-05-31T09:44:17;102564.75;;;23.36;42.26
79589;BME280;69067;51.930;4.492;2023-05-31T09:46:47;102567.50;;;23.44;41.75
79589;BME280;69067;51.930;4.492;2023-05-31T09:49:13;102567.25;;;23.37;41.85
79589;BME280;69067;51.930;4.492;2023-05-31T09:51:39;102571.88;;;23.37;42.53
79589;BME280;69067;51.930;4.492;2023-05-31T09:54:15;102570.22;;;23.44;41.77
79589;BME280;69067;51.930;4.492;2023-05-31T09:56:43;102577.31;;;23.45;41.64
79589;BME280;69067;51.930;4.492;2023-05-31T09:59:10;102559.34;;;23.44;42.26
79589;BME280;69067;51.930;4.492;2023-05-31T10:01:36;102562.44;;;23.49;42.23
79589;BME280;69067;51.930;4.492;2023-05-31T10:04:04;102572.22;;;23.42;42.23
79589;BME280;69067;51.930;4.492;2023-05-31T10:06:31;102557.16;;;23.47;42.22
79589;BME280;69067;51.930;4.492;2023-05-31T10:09:02;102556.78;;;23.42;42.00
79589;BME280;69067;51.930;4.492;2023-05-31T10:11:36;102561.41;;;23.50;41.88
79589;BME280;69067;51.930;4.492;2023-05-31T10:14:08;102561.56;;;23.48;42.11
79589;BME280;69067;51.930;4.492;2023-05-31T10:16:49;102553.75;;;23.53;41.44
79589;BME280;69067;51.930;4.492;2023-05-31T10:19:23;102551.50;;;23.41;41.66
79589;BME280;69067;51.930;4.492;2023-05-31T10:21:52;102544.41;;;23.48;42.51
79589;BME280;69067;51.930;4.492;2023-05-31T10:24:30;102550.81;;;23.47;41.59
79589;BME280;69067;51.930;4.492;2023-05-31T10:27:17;102544.59;;;23.54;41.37
79589;BME280;69067;51.930;4.492;2023-05-31T10:29:55;102539.06;;;23.38;42.16
79589;BME280;69067;51.930;4.492;2023-05-31T10:32:29;102538.81;;;23.49;41.42
79589;BME280;69067;51.930;4.492;2023-05-31T10:34:58;102545.09;;;23.50;41.46
79589;BME280;69067;51.930;4.492;2023-05-31T10:37:25;102536.53;;;23.45;42.01
79589;BME280;69067;51.930;4.492;2023-05-31T10:42:56;102528.78;;;23.50;41.95
79589;BME280;69067;51.930;4.492;2023-05-31T10:45:52;102533.22;;;23.51;42.00
79589;BME280;69067;51.930;4.492;2023-05-31T10:48:30;102528.09;;;23.48;42.08
79589;BME280;69067;51.930;4.492;2023-05-31T10:51:05;102520.28;;;23.53;42.21
79589;BME280;69067;51.930;4.492;2023-05-31T10:53:37;102520.63;;;23.50;42.44
79589;BME280;69067;51.930;4.492;2023-05-31T10:56:06;102524.00;;;23.52;41.66
79589;BME280;69067;51.930;4.492;2023-05-31T10:58:38;102524.88;;;23.52;41.26
79589;BME280;69067;51.930;4.492;2023-05-31T11:01:10;102508.75;;;23.51;42.25
79589;BME280;69067;51.930;4.492;2023-05-31T11:04:03;102517.56;;;23.53;42.41
79589;BME280;69067;51.930;4.492;2023-05-31T11:06:43;102518.56;;;23.52;41.45
79589;BME280;69067;51.930;4.492;2023-05-31T11:09:11;102507.88;;;23.50;42.26
79589;BME280;69067;51.930;4.492;2023-05-31T11:14:09;102511.81;;;23.56;41.86
79589;BME280;69067;51.930;4.492;2023-05-31T11:19:29;102508.22;;;23.55;41.78
79589;BME280;69067;51.930;4.492;2023-05-31T11:22:07;102505.66;;;23.54;41.63
79589;BME280;69067;51.930;4.492;2023-05-31T11:24:51;102505.00;;;23.60;41.27
79589;BME280;69067;51.930;4.492;2023-05-31T11:27:26;102501.94;;;23.63;41.15
79589;BME280;69067;51.930;4.492;2023-05-31T11:30:00;102498.69;;;23.60;41.90
79589;BME280;69067;51.930;4.492;2023-05-31T11:35:05;102498.03;;;23.66;41.63
79589;BME280;69067;51.930;4.492;2023-05-31T11:37:38;102503.47;;;23.66;41.76
79589;BME280;69067;51.930;4.492;2023-05-31T11:40:09;102496.84;;;23.68;41.87
79589;BME280;69067;51.930;4.492;2023-05-31T11:42:40;102499.41;;;23.70;41.47
79589;BME280;69067;51.930;4.492;2023-05-31T11:45:11;102492.94;;;23.71;42.54
79589;BME280;69067;51.930;4.492;2023-05-31T11:50:14;102483.59;;;23.73;42.14
79589;BME280;69067;51.930;4.492;2023-05-31T11:52:44;102475.63;;;23.72;41.95
79589;BME280;69067;51.930;4.492;2023-05-31T11:55:11;102493.28;;;23.76;41.91
79589;BME280;69067;51.930;4.492;2023-05-31T11:57:48;102476.97;;;23.76;42.32
79589;BME280;69067;51.930;4.492;2023-05-31T12:00:19;102477.47;;;23.79;42.46
79589;BME280;69067;51.930;4.492;2023-05-31T12:02:55;102470.16;;;23.80;42.59
79589;BME280;69067;51.930;4.492;2023-05-31T12:05:28;102470.16;;;23.80;42.63
79589;BME280;69067;51.930;4.492;2023-05-31T12:07:55;102468.28;;;23.80;42.52
79589;BME280;69067;51.930;4.492;2023-05-31T12:10:30;102466.25;;;23.82;42.51
79589;BME280;69067;51.930;4.492;2023-05-31T12:12:58;102468.13;;;23.82;42.26
79589;BME280;69067;51.930;4.492;2023-05-31T12:15:24;102461.66;;;23.83;42.71
79589;BME280;69067;51.930;4.492;2023-05-31T12:17:51;102455.19;;;23.84;41.90
79589;BME280;69067;51.930;4.492;2023-05-31T12:20:17;102452.66;;;23.82;42.41
79589;BME280;69067;51.930;4.492;2023-05-31T12:22:43;102442.09;;;23.79;42.17
79589;BME280;69067;51.930;4.492;2023-05-31T12:25:09;102455.84;;;23.86;42.08
79589;BME280;69067;51.930;4.492;2023-05-31T12:27:35;102446.88;;;23.85;41.88
79589;BME280;69067;51.930;4.492;2023-05-31T12:30:03;102443.63;;;23.82;42.17
79589;BME280;69067;51.930;4.492;2023-05-31T12:32:30;102441.59;;;23.84;42.51
79589;BME280;69067;51.930;4.492;2023-05-31T12:35:09;102446.69;;;23.87;42.24
79589;BME280;69067;51.930;4.492;2023-05-31T12:37:35;102442.09;;;23.87;42.53
79589;BME280;69067;51.930;4.492;2023-05-31T12:40:12;102440.06;;;23.89;42.55
79589;BME280;69067;51.930;4.492;2023-05-31T12:42:39;102434.63;;;23.89;41.96
79589;BME280;69067;51.930;4.492;2023-05-31T12:45:06;102419.31;;;23.88;42.04
79589;BME280;69067;51.930;4.492;2023-05-31T12:47:34;102426.47;;;23.89;42.02
79589;BME280;69067;51.930;4.492;2023-05-31T12:50:07;102420.00;;;23.90;42.29
79589;BME280;69067;51.930;4.492;2023-05-31T12:52:38;102425.44;;;23.90;42.31
79589;BME280;69067;51.930;4.492;2023-05-31T12:55:07;102423.56;;;23.91;42.26
79589;BME280;69067;51.930;4.492;2023-05-31T12:57:34;102419.63;;;23.93;41.89
79589;BME280;69067;51.930;4.492;2023-05-31T13:00:04;102417.59;;;23.95;41.83
79589;BME280;69067;51.930;4.492;2023-05-31T13:02:34;102406.72;;;23.95;41.92
79589;BME280;69067;51.930;4.492;2023-05-31T13:05:00;102409.59;;;23.94;42.63
79589;BME280;69067;51.930;4.492;2023-05-31T13:07:25;102401.25;;;24.04;42.53
79589;BME280;69067;51.930;4.492;2023-05-31T13:09:51;102398.19;;;24.07;42.26
79589;BME280;69067;51.930;4.492;2023-05-31T13:12:17;102398.38;;;23.97;42.75
79589;BME280;69067;51.930;4.492;2023-05-31T13:14:44;102404.66;;;24.06;42.10
79589;BME280;69067;51.930;4.492;2023-05-31T13:17:10;102396.50;;;24.06;42.07